createdAt,value
2023-04-23T00:00:23.379Z,1.00
2023-04-23T00:02:52.808Z,1.00
2023-04-23T00:05:19.860Z,1.00
2023-04-23T00:07:46.747Z,1.00
2023-04-23T00:10:13.553Z,1.00
2023-04-23T00:12:40.840Z,1.00
2023-04-23T00:15:08.065Z,1.00
2023-04-23T00:17:34.696Z,1.00
2023-04-23T00:20:01.384Z,1.00
2023-04-23T00:22:28.000Z,1.00
2023-04-23T00:24:54.639Z,1.00
2023-04-23T00:27:21.353Z,1.00
2023-04-23T00:29:48.039Z,1.00
2023-04-23T00:32:15.010Z,1.00
2023-04-23T00:34:42.054Z,1.00
2023-04-23T00:37:08.890Z,1.00
2023-04-23T00:39:37.594Z,1.00
2023-04-23T00:42:11.472Z,11.80
2023-04-23T00:44:38.928Z,98.50
2023-04-23T00:47:06.478Z,99.90
2023-04-23T00:49:33.886Z,99.90
2023-04-23T00:52:03.247Z,99.90
2023-04-23T00:54:29.863Z,99.90
2023-04-23T00:56:59.165Z,99.90
2023-04-23T00:59:26.035Z,1.00
2023-04-23T01:01:53.111Z,1.00
2023-04-23T01:04:20.026Z,1.00
2023-04-23T01:06:47.274Z,1.00
2023-04-23T01:09:14.069Z,1.00
2023-04-23T01:11:42.457Z,1.00
2023-04-23T01:14:09.759Z,72.50
2023-04-23T01:16:38.378Z,99.90
2023-04-23T01:19:06.813Z,99.90
2023-04-23T01:21:34.610Z,99.90
2023-04-23T01:24:02.401Z,1.00
2023-04-23T01:26:28.987Z,1.00
2023-04-23T01:28:55.684Z,1.00
2023-04-23T01:31:22.466Z,1.00
2023-04-23T01:33:51.094Z,32.00
2023-04-23T01:36:18.278Z,99.90
2023-04-23T01:38:45.211Z,99.90
2023-04-23T01:41:11.930Z,99.90
2023-04-23T01:43:38.583Z,99.90
2023-04-23T01:46:05.315Z,99.90
2023-04-23T01:48:31.949Z,99.90
2023-04-23T01:50:58.559Z,99.90
2023-04-23T01:53:25.397Z,99.90
2023-04-23T01:55:52.502Z,99.90
2023-04-23T01:58:19.510Z,1.00
2023-04-23T02:00:46.094Z,1.00
2023-04-23T02:03:12.872Z,1.00
2023-04-23T02:05:39.525Z,1.00
2023-04-23T02:08:06.199Z,1.00
2023-04-23T02:10:32.934Z,1.00
2023-04-23T02:12:59.722Z,1.00
2023-04-23T02:15:26.341Z,1.00
2023-04-23T02:17:53.298Z,1.00
2023-04-23T02:20:20.205Z,1.00
2023-04-23T02:22:47.166Z,1.00
2023-04-23T02:25:15.770Z,1.00
2023-04-23T02:27:42.411Z,1.00
2023-04-23T02:30:09.583Z,1.00
2023-04-23T02:32:37.228Z,1.00
2023-04-23T02:35:06.317Z,1.00
2023-04-23T02:37:33.390Z,1.00
2023-04-23T02:39:59.993Z,1.00
2023-04-23T02:42:26.846Z,1.00
2023-04-23T02:44:53.444Z,1.00
2023-04-23T02:47:20.135Z,1.00
2023-04-23T02:49:47.059Z,99.90
2023-04-23T02:52:13.653Z,1.00
2023-04-23T02:54:40.440Z,99.90
2023-04-23T02:57:07.284Z,99.90
2023-04-23T02:59:33.932Z,99.90
2023-04-23T03:02:00.698Z,99.90
2023-04-23T03:04:27.766Z,99.90
2023-04-23T03:06:54.359Z,58.30
2023-04-23T03:09:21.002Z,48.30
2023-04-23T03:11:48.084Z,24.20
2023-04-23T03:14:14.755Z,34.90
2023-04-23T03:16:41.434Z,26.40
2023-04-23T03:19:08.068Z,37.70
2023-04-23T03:21:35.062Z,99.90
2023-04-23T03:24:01.687Z,99.90
2023-04-23T03:26:28.297Z,99.90
2023-04-23T03:28:55.188Z,99.90
2023-04-23T03:31:21.859Z,99.90
2023-04-23T03:33:48.658Z,99.90
2023-04-23T03:36:15.938Z,99.90
2023-04-23T03:38:42.571Z,99.90
2023-04-23T03:41:09.174Z,99.90
2023-04-23T03:43:35.835Z,99.90
2023-04-23T03:46:02.538Z,99.90
2023-04-23T03:48:29.296Z,1.00
2023-04-23T03:50:55.896Z,1.00
2023-04-23T03:53:22.503Z,1.00
2023-04-23T03:55:49.121Z,1.00
2023-04-23T03:58:15.832Z,1.00
2023-04-23T04:00:42.425Z,1.00
2023-04-23T04:03:09.211Z,1.00
2023-04-23T04:05:36.003Z,1.00
2023-04-23T04:08:03.029Z,1.00
2023-04-23T04:10:29.661Z,1.00
2023-04-23T04:12:56.315Z,1.00
2023-04-23T04:15:23.361Z,1.00
2023-04-23T04:17:49.999Z,1.00
2023-04-23T04:20:16.644Z,1.00
2023-04-23T04:22:43.587Z,1.00
2023-04-23T04:25:10.203Z,99.90
2023-04-23T04:27:37.517Z,99.90
2023-04-23T04:30:05.596Z,99.90
2023-04-23T04:32:32.612Z,99.90
2023-04-23T04:34:59.233Z,1.00
2023-04-23T04:37:26.392Z,1.00
2023-04-23T04:39:53.008Z,1.00
2023-04-23T04:42:20.261Z,99.90
2023-04-23T04:44:46.907Z,99.90
2023-04-23T04:47:13.566Z,1.00
2023-04-23T04:49:40.270Z,1.00
2023-04-23T04:52:06.880Z,1.00
2023-04-23T04:54:33.548Z,23.20
2023-04-23T04:57:00.747Z,1.00
2023-04-23T04:59:27.368Z,1.00
2023-04-23T05:01:54.133Z,1.00
2023-04-23T05:04:20.811Z,1.00
2023-04-23T05:06:47.415Z,1.00
2023-04-23T05:09:14.030Z,1.00
2023-04-23T05:11:41.339Z,1.00
2023-04-23T05:14:07.973Z,1.00
2023-04-23T05:16:34.687Z,1.00
2023-04-23T05:19:01.627Z,1.00
2023-04-23T05:21:28.296Z,1.00
2023-04-23T05:23:55.798Z,1.00
2023-04-23T05:26:22.423Z,1.00
2023-04-23T05:28:49.051Z,1.00
2023-04-23T05:31:15.797Z,1.00
2023-04-23T05:33:49.823Z,1.00
2023-04-23T05:36:17.387Z,1.00
2023-04-23T05:38:45.404Z,1.00
2023-04-23T05:41:12.084Z,1.00
2023-04-23T05:43:38.726Z,1.00
2023-04-23T05:46:07.322Z,1.00
2023-04-23T05:48:34.455Z,1.20
2023-04-23T05:51:02.979Z,75.20
2023-04-23T05:53:29.620Z,41.80
2023-04-23T05:55:56.304Z,1.00
2023-04-23T05:58:23.245Z,1.00
2023-04-23T06:00:50.166Z,1.00
2023-04-23T06:03:16.958Z,1.00
2023-04-23T06:05:43.770Z,1.00
2023-04-23T06:08:10.435Z,1.00
2023-04-23T06:10:37.111Z,99.90
2023-04-23T06:13:03.770Z,99.90
2023-04-23T06:15:30.790Z,99.90
2023-04-23T06:17:57.645Z,63.80
2023-04-23T06:20:24.987Z,51.20
2023-04-23T06:22:51.620Z,4.20
2023-04-23T06:25:18.414Z,1.00
2023-04-23T06:27:45.031Z,1.00
2023-04-23T06:30:12.062Z,1.00
2023-04-23T06:32:38.733Z,1.00
2023-04-23T06:35:07.203Z,99.90
2023-04-23T06:37:34.224Z,1.00
2023-04-23T06:40:00.933Z,1.00
2023-04-23T06:42:27.631Z,1.00
2023-04-23T06:44:54.465Z,1.00
2023-04-23T06:47:21.130Z,1.00
2023-04-23T06:49:47.799Z,99.90
2023-04-23T06:52:14.422Z,99.90
2023-04-23T06:54:41.410Z,99.90
2023-04-23T06:57:08.273Z,99.90
2023-04-23T06:59:34.890Z,99.90
2023-04-23T07:02:01.573Z,99.90
2023-04-23T07:04:28.252Z,99.90
2023-04-23T07:06:55.116Z,99.90
2023-04-23T07:09:21.881Z,99.90
2023-04-23T07:11:48.489Z,99.90
2023-04-23T07:14:15.120Z,99.90
2023-04-23T07:16:41.846Z,99.90
2023-04-23T07:19:08.519Z,99.90
2023-04-23T07:21:43.662Z,99.90
2023-04-23T07:24:10.301Z,99.90
2023-04-23T07:26:37.227Z,99.90
2023-04-23T07:29:07.971Z,99.90
2023-04-23T07:31:34.633Z,99.90
2023-04-23T07:34:01.348Z,99.90
2023-04-23T07:36:28.307Z,99.90
2023-04-23T07:38:55.075Z,99.90
2023-04-23T07:41:22.031Z,99.90
2023-04-23T07:43:48.632Z,99.90
2023-04-23T07:46:15.379Z,99.90
2023-04-23T07:48:42.003Z,99.90
2023-04-23T07:51:08.878Z,99.90
2023-04-23T07:53:35.604Z,99.90
2023-04-23T07:56:02.275Z,99.90
2023-04-23T07:58:28.938Z,99.90
2023-04-23T08:00:55.626Z,99.90
2023-04-23T08:03:23.736Z,99.90
2023-04-23T08:05:51.018Z,99.90
2023-04-23T08:08:17.956Z,99.90
2023-04-23T08:10:45.272Z,99.90
2023-04-23T08:13:11.927Z,99.90
2023-04-23T08:15:38.642Z,99.90
2023-04-23T08:18:05.559Z,99.90
2023-04-23T08:20:32.527Z,99.90
2023-04-23T08:22:59.254Z,99.90
2023-04-23T08:25:26.080Z,99.90
2023-04-23T08:27:52.840Z,99.90
2023-04-23T08:30:19.469Z,99.90
2023-04-23T08:32:46.638Z,99.90
2023-04-23T08:35:13.543Z,99.90
2023-04-23T08:37:40.314Z,99.90
2023-04-23T08:40:07.991Z,99.90
2023-04-23T08:42:41.750Z,99.90
2023-04-23T08:45:08.781Z,99.90
2023-04-23T08:47:36.105Z,99.90
2023-04-23T08:50:02.898Z,99.90
2023-04-23T08:52:31.336Z,99.90
2023-04-23T08:55:01.016Z,99.90
2023-04-23T08:57:27.930Z,99.90
2023-04-23T08:59:55.271Z,99.90
2023-04-23T09:02:22.051Z,99.90
2023-04-23T09:04:50.875Z,99.90
2023-04-23T09:07:18.501Z,99.90
2023-04-23T09:09:45.445Z,99.90
2023-04-23T09:12:12.092Z,99.90
2023-04-23T09:14:38.723Z,99.90
2023-04-23T09:17:05.460Z,99.90
2023-04-23T09:19:32.465Z,99.90
2023-04-23T09:22:00.972Z,99.90
2023-04-23T09:24:28.097Z,99.90
2023-04-23T09:26:54.978Z,99.90
2023-04-23T09:29:23.549Z,99.90
2023-04-23T09:31:55.549Z,99.90
2023-04-23T09:34:23.789Z,99.90
2023-04-23T09:36:51.764Z,99.90
2023-04-23T09:39:19.528Z,99.90
2023-04-23T09:41:48.966Z,99.90
2023-04-23T09:44:19.358Z,99.90
2023-04-23T09:46:46.073Z,99.90
2023-04-23T09:49:12.857Z,99.90
2023-04-23T09:51:44.040Z,99.90
2023-04-23T09:54:14.902Z,99.90
2023-04-23T09:56:44.433Z,99.90
2023-04-23T09:59:46.304Z,99.90
2023-04-23T10:02:11.795Z,99.90
2023-04-23T10:04:38.712Z,99.90
2023-04-23T10:07:19.040Z,99.90
2023-04-23T10:09:46.688Z,99.90
2023-04-23T10:12:33.316Z,99.90
2023-04-23T10:15:00.139Z,99.90
2023-04-23T10:17:26.810Z,99.90
2023-04-23T10:19:53.512Z,99.90
2023-04-23T10:22:20.498Z,99.90
2023-04-23T10:24:49.324Z,99.90
2023-04-23T10:27:28.441Z,99.90
2023-04-23T10:30:05.495Z,99.90
2023-04-23T10:32:33.862Z,99.90
2023-04-23T10:35:00.860Z,99.90
2023-04-23T10:37:27.917Z,99.90
2023-04-23T10:39:55.762Z,99.90
2023-04-23T10:42:22.700Z,99.90
2023-04-23T10:47:20.637Z,99.90
2023-04-23T10:49:47.329Z,99.90
2023-04-23T10:52:20.649Z,99.90
2023-04-23T10:54:50.343Z,99.90
2023-04-23T10:57:16.949Z,99.90
2023-04-23T10:59:54.110Z,99.90
2023-04-23T11:02:21.178Z,99.90
2023-04-23T11:04:53.994Z,99.90
2023-04-23T11:07:20.813Z,99.90
2023-04-23T11:09:47.727Z,99.90
2023-04-23T11:12:30.775Z,99.90
2023-04-23T11:15:09.682Z,99.90
2023-04-23T11:17:36.245Z,99.90
2023-04-23T11:20:16.239Z,99.90
2023-04-23T11:22:43.694Z,99.90
2023-04-23T11:25:15.372Z,99.90
2023-04-23T11:27:45.813Z,99.90
2023-04-23T11:30:22.862Z,99.90
2023-04-23T11:32:50.749Z,99.90
2023-04-23T11:35:18.776Z,99.90
2023-04-23T11:37:45.722Z,99.90
2023-04-23T11:40:14.240Z,99.90
2023-04-23T11:42:43.025Z,99.90
2023-04-23T11:45:15.902Z,99.90
2023-04-23T11:47:43.213Z,99.90
2023-04-23T11:50:10.243Z,99.90
2023-04-23T11:52:38.449Z,99.90
2023-04-23T11:55:07.297Z,99.90
2023-04-23T11:57:40.768Z,99.90
2023-04-23T12:00:18.926Z,99.90
2023-04-23T12:03:02.257Z,99.90
2023-04-23T12:05:39.641Z,99.90
2023-04-23T12:08:15.042Z,99.90
2023-04-23T12:10:45.929Z,99.90
2023-04-23T12:13:17.056Z,99.90
2023-04-23T12:15:56.596Z,99.90
2023-04-23T12:18:30.576Z,99.90
2023-04-23T12:21:04.780Z,99.90
2023-04-23T12:23:31.754Z,99.90
2023-04-23T12:25:58.375Z,99.90
2023-04-23T12:28:25.611Z,99.90
2023-04-23T12:30:52.319Z,99.90
2023-04-23T12:33:18.935Z,99.90
2023-04-23T12:35:52.205Z,99.90
2023-04-23T12:38:26.444Z,99.90
2023-04-23T12:40:53.478Z,99.90
2023-04-23T12:43:20.148Z,99.90
2023-04-23T12:45:46.851Z,99.90
2023-04-23T12:48:13.708Z,99.90
2023-04-23T12:50:40.402Z,99.90
2023-04-23T12:53:07.836Z,99.90
2023-04-23T12:55:34.555Z,99.90
2023-04-23T12:58:01.175Z,99.90
2023-04-23T13:00:27.867Z,99.90
2023-04-23T13:02:55.466Z,99.90
2023-04-23T13:05:22.625Z,99.90
2023-04-23T13:07:49.257Z,99.90
2023-04-23T13:10:16.248Z,99.90
2023-04-23T13:12:43.153Z,99.90
2023-04-23T13:15:12.003Z,99.90
2023-04-23T13:17:38.961Z,99.90
2023-04-23T13:20:06.629Z,99.90
2023-04-23T13:22:33.400Z,99.90
2023-04-23T13:25:00.078Z,99.90
2023-04-23T13:27:28.164Z,99.90
2023-04-23T13:29:55.317Z,99.90
2023-04-23T13:32:23.600Z,99.90
2023-04-23T13:34:50.300Z,99.90
2023-04-23T13:37:17.189Z,99.90
2023-04-23T13:39:44.416Z,99.90
2023-04-23T13:42:11.371Z,99.90
2023-04-23T13:44:37.992Z,99.90
2023-04-23T13:47:04.739Z,99.90
2023-04-23T13:49:31.954Z,99.90
2023-04-23T13:52:01.324Z,99.90
2023-04-23T13:54:28.262Z,99.90
2023-04-23T13:56:55.980Z,99.90
2023-04-23T13:59:26.196Z,99.90
2023-04-23T14:01:52.927Z,99.90
2023-04-23T14:04:22.736Z,99.90
2023-04-23T14:06:49.581Z,99.90
2023-04-23T14:09:16.198Z,99.90
2023-04-23T14:11:42.896Z,99.90
2023-04-23T14:14:09.527Z,99.90
2023-04-23T14:16:36.175Z,99.90
2023-04-23T14:19:02.779Z,99.90
2023-04-23T14:21:29.492Z,99.90
2023-04-23T14:24:08.382Z,99.90
2023-04-23T14:29:42.651Z,99.90
2023-04-23T14:32:09.510Z,99.90
2023-04-23T14:34:36.324Z,99.90
2023-04-23T14:37:03.269Z,99.90
2023-04-23T14:39:29.922Z,99.90
2023-04-23T14:41:56.602Z,99.90
2023-04-23T14:44:23.521Z,99.90
2023-04-23T14:46:51.149Z,99.90
2023-04-23T14:49:18.783Z,99.90
2023-04-23T14:51:45.762Z,99.90
2023-04-23T14:54:12.623Z,99.90
2023-04-23T14:56:39.502Z,99.90
2023-04-23T14:59:06.180Z,99.90
2023-04-23T15:01:32.918Z,99.90
2023-04-23T15:03:59.703Z,99.90
2023-04-23T15:06:26.434Z,99.90
2023-04-23T15:08:53.060Z,99.90
2023-04-23T15:11:19.665Z,99.90
2023-04-23T15:13:53.997Z,99.90
2023-04-23T15:16:48.993Z,99.90
2023-04-23T15:19:17.770Z,99.90
2023-04-23T15:21:45.053Z,99.90
2023-04-23T15:24:11.696Z,99.90
2023-04-23T15:26:38.417Z,99.90
2023-04-23T15:29:06.045Z,99.90
2023-04-23T15:31:32.852Z,99.90
2023-04-23T15:33:59.533Z,99.90
2023-04-23T15:36:26.253Z,99.90
2023-04-23T15:38:52.972Z,99.90
2023-04-23T15:41:19.575Z,99.90
2023-04-23T15:43:47.317Z,99.90
2023-04-23T15:46:14.026Z,99.90
2023-04-23T15:48:40.788Z,99.90
2023-04-23T15:51:07.708Z,99.90
2023-04-23T15:53:34.324Z,99.90
2023-04-23T15:56:01.048Z,99.90
2023-04-23T15:58:27.764Z,99.90
2023-04-23T16:00:55.071Z,99.90
2023-04-23T16:03:21.827Z,99.90
2023-04-23T16:05:50.904Z,99.90
2023-04-23T16:08:17.509Z,99.90
2023-04-23T16:10:44.225Z,99.90
2023-04-23T16:13:10.827Z,99.90
2023-04-23T16:15:37.479Z,99.90
2023-04-23T16:18:04.192Z,99.90
2023-04-23T16:20:30.930Z,99.90
2023-04-23T16:22:57.575Z,99.90
2023-04-23T16:25:24.281Z,99.90
2023-04-23T16:27:51.152Z,99.90
2023-04-23T16:30:17.808Z,99.90
2023-04-23T16:32:44.952Z,99.90
2023-04-23T16:35:11.721Z,99.90
2023-04-23T16:37:38.307Z,99.90
2023-04-23T16:40:05.973Z,99.90
2023-04-23T16:42:32.698Z,99.90
2023-04-23T16:44:59.466Z,99.90
2023-04-23T16:47:26.406Z,99.90
2023-04-23T16:49:53.175Z,99.90
2023-04-23T16:52:19.826Z,99.90
2023-04-23T16:54:49.179Z,99.90
2023-04-23T16:57:16.706Z,99.90
2023-04-23T16:59:43.302Z,99.90
2023-04-23T17:02:10.587Z,99.90
2023-04-23T17:04:37.524Z,99.90
2023-04-23T17:07:04.350Z,99.90
2023-04-23T17:09:31.635Z,99.90
2023-04-23T17:11:59.156Z,99.90
2023-04-23T17:14:26.061Z,99.90
2023-04-23T17:16:52.733Z,99.90
2023-04-23T17:19:19.371Z,99.90
2023-04-23T17:21:46.021Z,99.90
2023-04-23T17:24:12.833Z,99.90
2023-04-23T17:26:39.869Z,99.90
2023-04-23T17:29:08.256Z,99.90
2023-04-23T17:31:37.587Z,99.90
2023-04-23T17:34:04.982Z,99.90
2023-04-23T17:36:31.803Z,99.90
2023-04-23T17:38:58.525Z,99.90
2023-04-23T17:41:25.328Z,99.90
2023-04-23T17:43:51.963Z,99.90
2023-04-23T17:46:18.634Z,99.90
2023-04-23T17:48:45.284Z,99.90
2023-04-23T17:51:12.122Z,99.90
2023-04-23T17:53:38.808Z,99.90
2023-04-23T17:56:05.457Z,99.90
2023-04-23T17:58:32.090Z,99.90
2023-04-23T18:00:58.760Z,99.90
2023-04-23T18:03:26.554Z,99.90
2023-04-23T18:05:53.962Z,99.90
2023-04-23T18:08:21.265Z,99.90
2023-04-23T18:10:48.174Z,99.90
2023-04-23T18:13:14.906Z,99.90
2023-04-23T18:15:42.252Z,99.90
2023-04-23T18:18:09.171Z,99.90
2023-04-23T18:20:38.556Z,99.90
2023-04-23T18:23:06.394Z,99.90
2023-04-23T18:25:33.137Z,99.90
2023-04-23T18:28:00.138Z,99.90
2023-04-23T18:30:26.847Z,99.90
2023-04-23T18:33:15.061Z,99.90
2023-04-23T18:35:42.894Z,99.90
2023-04-23T18:38:25.996Z,99.90
2023-04-23T18:40:52.604Z,99.90
2023-04-23T18:43:19.278Z,99.90
2023-04-23T18:45:45.895Z,99.90
2023-04-23T18:48:33.375Z,99.90
2023-04-23T18:51:19.501Z,99.90
2023-04-23T18:53:46.693Z,99.90
2023-04-23T18:56:13.343Z,99.90
2023-04-23T18:58:39.958Z,99.90
2023-04-23T19:01:06.615Z,99.90
2023-04-23T19:03:33.612Z,99.90
2023-04-23T19:06:00.250Z,99.90
2023-04-23T19:08:29.906Z,99.90
2023-04-23T19:10:56.627Z,99.90
2023-04-23T19:13:23.452Z,99.90
2023-04-23T19:15:50.462Z,99.90
2023-04-23T19:18:17.896Z,99.90
2023-04-23T19:20:44.627Z,99.90
2023-04-23T19:23:11.586Z,99.90
2023-04-23T19:25:38.175Z,99.90
2023-04-23T19:28:04.824Z,99.90
2023-04-23T19:30:32.254Z,99.90
2023-04-23T19:32:58.909Z,1.00
2023-04-23T19:35:25.680Z,1.00
2023-04-23T19:37:52.321Z,1.00
2023-04-23T19:40:19.032Z,1.00
2023-04-23T19:42:45.777Z,1.00
2023-04-23T19:45:12.490Z,1.00
2023-04-23T19:47:40.069Z,1.00
2023-04-23T19:50:07.676Z,1.00
2023-04-23T19:52:34.410Z,1.00
2023-04-23T19:55:01.037Z,1.00
2023-04-23T19:57:27.944Z,1.00
2023-04-23T19:59:54.553Z,1.00
2023-04-23T20:02:21.475Z,1.00
2023-04-23T20:04:48.275Z,1.00
2023-04-23T20:07:14.933Z,1.00
2023-04-23T20:09:41.981Z,1.00
2023-04-23T20:12:08.814Z,1.00
2023-04-23T20:14:35.485Z,1.00
2023-04-23T20:17:02.287Z,1.00
2023-04-23T20:19:30.927Z,1.00
2023-04-23T20:21:57.540Z,5.80
2023-04-23T20:24:24.142Z,62.90
2023-04-23T20:26:50.907Z,88.10
2023-04-23T20:29:17.535Z,99.90
2023-04-23T20:31:48.711Z,99.90
2023-04-23T20:34:16.513Z,99.90
2023-04-23T20:36:43.123Z,99.90
2023-04-23T20:39:10.795Z,99.90
2023-04-23T20:41:37.411Z,99.90
2023-04-23T20:44:04.897Z,99.90
2023-04-23T20:46:32.130Z,1.00
2023-04-23T20:49:03.219Z,1.00
2023-04-23T20:51:29.936Z,1.00
2023-04-23T20:53:59.555Z,1.00
2023-04-23T20:56:26.311Z,1.00
2023-04-23T20:58:52.994Z,1.00
2023-04-23T21:01:19.778Z,1.00
2023-04-23T21:03:46.602Z,1.00
2023-04-23T21:06:13.338Z,1.00
2023-04-23T21:08:42.453Z,1.00
2023-04-23T21:11:11.224Z,1.00
2023-04-23T21:13:38.089Z,1.00
2023-04-23T21:16:04.903Z,1.00
2023-04-23T21:18:31.648Z,1.00
2023-04-23T21:20:58.338Z,1.00
2023-04-23T21:23:25.009Z,1.00
2023-04-23T21:25:51.695Z,1.00
2023-04-23T21:28:18.726Z,1.00
2023-04-23T21:30:49.136Z,18.00
2023-04-23T21:33:16.174Z,18.00
2023-04-23T21:35:43.190Z,34.70
2023-04-23T21:38:10.210Z,93.60
2023-04-23T21:40:37.103Z,93.10
2023-04-23T21:43:04.398Z,99.90
2023-04-23T21:45:31.516Z,99.90
2023-04-23T21:47:58.400Z,99.90
2023-04-23T21:50:26.010Z,99.90
2023-04-23T21:52:53.361Z,99.90
2023-04-23T21:55:20.779Z,99.90
2023-04-23T21:57:47.984Z,65.90
2023-04-23T22:00:15.916Z,24.50
2023-04-23T22:02:46.406Z,21.70
2023-04-23T22:05:14.656Z,1.00
2023-04-23T22:07:42.397Z,1.00
2023-04-23T22:10:11.335Z,1.00
2023-04-23T22:12:38.937Z,1.00
2023-04-23T22:15:06.917Z,1.00
2023-04-23T22:17:35.621Z,1.00
2023-04-23T22:20:06.768Z,1.00
2023-04-23T22:22:34.291Z,1.00
2023-04-23T22:25:01.940Z,1.00
2023-04-23T22:27:28.807Z,1.00
2023-04-23T22:29:55.559Z,99.90
2023-04-23T22:32:22.283Z,99.90
2023-04-23T22:34:48.963Z,99.90
2023-04-23T22:37:15.792Z,99.90
2023-04-23T22:39:42.622Z,99.90
2023-04-23T22:42:09.493Z,99.90
2023-04-23T22:44:37.709Z,99.90
2023-04-23T22:47:05.549Z,99.90
2023-04-23T22:49:32.210Z,99.90
2023-04-23T22:51:58.832Z,99.90
2023-04-23T22:54:25.473Z,99.90
2023-04-23T22:56:52.164Z,99.90
2023-04-23T22:59:19.268Z,99.90
2023-04-23T23:01:46.018Z,99.90
2023-04-23T23:04:13.243Z,99.90
2023-04-23T23:06:41.403Z,99.90
2023-04-23T23:09:08.041Z,99.90
2023-04-23T23:11:34.765Z,78.90
2023-04-23T23:14:01.349Z,33.30
2023-04-23T23:16:27.985Z,1.00
2023-04-23T23:18:54.644Z,1.00
2023-04-23T23:21:21.312Z,1.00
2023-04-23T23:23:48.341Z,1.00
2023-04-23T23:26:15.056Z,1.00
2023-04-23T23:28:41.748Z,1.00
2023-04-23T23:31:09.025Z,1.00
2023-04-23T23:33:36.240Z,1.00
2023-04-23T23:36:03.022Z,1.00
2023-04-23T23:38:29.713Z,2.20
2023-04-23T23:40:56.355Z,5.10
2023-04-23T23:43:23.021Z,14.30
2023-04-23T23:45:49.651Z,39.70
2023-04-23T23:48:16.271Z,68.50
2023-04-23T23:50:42.914Z,99.90
2023-04-23T23:53:09.539Z,99.90
2023-04-23T23:55:38.532Z,99.90
2023-04-23T23:58:06.243Z,99.90
